Time;durP1;ratioP1;P1;durP2;ratioP2;P2;SDS_P1;SDS_P2;PMS_P1;PMS_P2;Temp;Humidity;BMP_temperature;BMP_pressure;BME280_temperature;BME280_humidity;BME280_pressure;Samples;Min_cycle;Max_cycle;Signal;HPM_P1;HPM_P2
2022/01/15 00:02:26;;;;;;;9.98;3.25;;;25.90;99.90;;;;;;5072649;28;20196;-83
2022/01/15 00:04:59;;;;;;;9.90;3.22;;;26.00;99.90;;;;;;5072919;28;20208;-82
2022/01/15 00:07:29;;;;;;;11.50;3.33;;;26.20;99.90;;;;;;5072410;28;20617;-81
2022/01/15 00:10:00;;;;;;;11.93;3.25;;;26.20;99.90;;;;;;5073540;28;20265;-81
2022/01/15 00:12:37;;;;;;;9.90;3.00;;;26.20;99.90;;;;;;5072121;28;20204;-80
2022/01/15 00:15:11;;;;;;;8.23;3.05;;;26.30;99.90;;;;;;5072472;28;20244;-81
2022/01/15 00:17:56;;;;;;;9.15;3.20;;;26.30;99.90;;;;;;5070189;28;20185;-81
2022/01/15 00:20:29;;;;;;;9.20;3.17;;;26.30;99.90;;;;;;5068385;28;20188;-80
2022/01/15 00:23:01;;;;;;;11.65;3.00;;;26.40;99.90;;;;;;5069324;28;20193;-79
2022/01/15 00:25:33;;;;;;;10.75;3.35;;;26.30;99.90;;;;;;5068153;28;20185;-81
2022/01/15 00:28:08;;;;;;;8.95;2.78;;;26.40;99.90;;;;;;5054684;28;20213;-80
2022/01/15 00:30:38;;;;;;;9.23;3.20;;;26.30;99.90;;;;;;5063360;28;20239;-80
2022/01/15 00:33:09;;;;;;;10.45;3.20;;;26.30;99.90;;;;;;5052987;28;20193;-80
2022/01/15 00:35:41;;;;;;;8.98;3.03;;;26.20;99.90;;;;;;5065075;28;20184;-82
2022/01/15 00:38:12;;;;;;;11.15;3.17;;;26.20;99.90;;;;;;5085431;28;20196;-81
2022/01/15 00:40:43;;;;;;;11.80;3.08;;;26.10;99.90;;;;;;5054033;28;20541;-81
2022/01/15 00:43:13;;;;;;;10.30;3.30;;;26.20;99.90;;;;;;5056553;28;20190;-81
2022/01/15 00:45:44;;;;;;;9.25;3.47;;;26.10;99.90;;;;;;5058784;28;20186;-82
2022/01/15 00:48:15;;;;;;;11.45;3.22;;;26.20;99.90;;;;;;5056898;28;20217;-82
2022/01/15 00:50:47;;;;;;;8.10;3.00;;;26.20;99.90;;;;;;5060402;28;20532;-82
2022/01/15 00:53:18;;;;;;;9.27;2.92;;;26.20;99.90;;;;;;5059615;28;20194;-81
2022/01/15 00:55:49;;;;;;;9.27;2.78;;;26.30;99.90;;;;;;5066060;28;20193;-80
2022/01/15 00:58:19;;;;;;;6.72;2.72;;;26.30;99.90;;;;;;5061497;28;20932;-81
2022/01/15 01:00:50;;;;;;;6.20;2.17;;;26.20;99.90;;;;;;5064405;28;20228;-81
2022/01/15 01:03:21;;;;;;;5.95;2.00;;;26.20;99.90;;;;;;5070967;28;20185;-80
2022/01/15 01:05:53;;;;;;;6.75;1.92;;;26.10;99.90;;;;;;5069808;28;20181;-82
2022/01/15 01:08:24;;;;;;;6.07;1.92;;;26.20;99.90;;;;;;5069853;28;20699;-81
2022/01/15 01:10:57;;;;;;;10.73;5.00;;;26.20;99.90;;;;;;5057471;28;20190;-81
2022/01/15 01:25:22;;;;;;;5.65;2.28;;;26.20;99.90;;;;;;5074541;27;20565;-81
2022/01/15 01:27:56;;;;;;;7.53;2.58;;;26.20;99.90;;;;;;5064575;28;20193;-81
2022/01/15 01:30:32;;;;;;;4.45;2.10;;;26.20;99.90;;;;;;5069296;28;20574;-81
2022/01/15 01:33:15;;;;;;;4.88;2.30;;;26.20;99.90;;;;;;5072356;28;20197;-81
2022/01/15 01:35:50;;;;;;;6.32;2.10;;;26.30;99.90;;;;;;5069912;28;20184;-81
2022/01/15 01:38:28;;;;;;;5.05;2.05;;;26.30;99.90;;;;;;5075405;28;20196;-81
2022/01/15 01:41:01;;;;;;;6.38;2.25;;;26.40;99.90;;;;;;5069783;28;20277;-80
2022/01/15 01:43:55;;;;;;;5.43;2.30;;;26.50;99.90;;;;;;5076250;28;20576;-82
2022/01/15 01:46:42;;;;;;;6.72;2.08;;;26.60;99.90;;;;;;5050242;28;20232;-81
2022/01/15 01:49:17;;;;;;;13.50;5.20;;;26.70;99.90;;;;;;5049899;28;20190;-81
2022/01/15 01:51:49;;;;;;;11.00;3.47;;;26.90;99.90;;;;;;5049715;28;20650;-81
2022/01/15 01:54:19;;;;;;;5.22;2.40;;;27.30;99.90;;;;;;5069726;28;20668;-81
2022/01/15 01:56:52;;;;;;;9.73;2.53;;;27.40;99.90;;;;;;5071065;28;20186;-80
2022/01/15 01:59:23;;;;;;;5.30;1.98;;;27.60;99.90;;;;;;5077953;28;20267;-81
2022/01/15 02:01:53;;;;;;;4.60;2.00;;;27.60;99.90;;;;;;5048233;28;20232;-80
2022/01/15 02:04:24;;;;;;;9.55;2.40;;;27.60;99.90;;;;;;5049350;28;20585;-81
2022/01/15 02:06:55;;;;;;;9.10;2.42;;;27.60;99.90;;;;;;5059401;28;20274;-80
2022/01/15 02:09:26;;;;;;;8.43;3.05;;;27.60;99.90;;;;;;5058141;28;20189;-80
2022/01/15 02:11:58;;;;;;;8.00;3.03;;;27.60;99.90;;;;;;5051830;28;20221;-80
2022/01/15 02:14:30;;;;;;;4.47;2.28;;;27.60;99.90;;;;;;5052575;28;20189;-81
2022/01/15 02:17:01;;;;;;;7.75;2.50;;;27.50;99.90;;;;;;5052670;28;20281;-80
2022/01/15 02:19:57;;;;;;;6.25;2.30;;;27.60;99.90;;;;;;5049129;28;20189;-80
2022/01/15 02:25:12;;;;;;;9.75;3.33;;;27.60;99.90;;;;;;5015108;28;20697;-81
2022/01/15 02:27:42;;;;;;;12.93;3.75;;;27.70;99.90;;;;;;5048246;28;20182;-81
2022/01/15 02:30:14;;;;;;;10.18;3.65;;;28.00;99.90;;;;;;5048732;28;20921;-81
2022/01/15 02:32:44;;;;;;;12.30;3.63;;;28.20;99.90;;;;;;5049019;28;20193;-81
2022/01/15 02:35:17;;;;;;;15.80;3.83;;;28.30;99.90;;;;;;5043447;28;20605;-81
2022/01/15 02:37:48;;;;;;;11.38;3.63;;;28.40;99.90;;;;;;5035779;28;20196;-81
2022/01/15 02:40:18;;;;;;;8.60;3.47;;;28.50;99.90;;;;;;5035607;28;20194;-85
2022/01/15 02:42:49;;;;;;;12.38;3.85;;;28.60;99.90;;;;;;5047407;28;20202;-81
2022/01/15 02:45:23;;;;;;;12.05;4.00;;;28.70;99.90;;;;;;5037564;28;20689;-84
2022/01/15 02:48:03;;;;;;;20.10;5.50;;;28.70;99.90;;;;;;5035515;28;20277;-82
2022/01/15 02:50:35;;;;;;;10.65;3.45;;;28.70;99.90;;;;;;5039330;28;20197;-82
2022/01/15 02:53:06;;;;;;;11.88;3.75;;;28.60;99.90;;;;;;5034865;28;20186;-81
2022/01/15 02:55:37;;;;;;;6.93;3.17;;;28.60;99.90;;;;;;5034897;28;20198;-82
2022/01/15 02:58:08;;;;;;;9.32;3.00;;;28.70;99.90;;;;;;5032335;28;20187;-82
2022/01/15 03:00:39;;;;;;;8.15;2.97;;;28.70;99.90;;;;;;5034334;28;20222;-81
2022/01/15 03:03:13;;;;;;;7.47;3.10;;;28.70;99.90;;;;;;5039258;28;20193;-81
2022/01/15 03:05:45;;;;;;;6.70;2.90;;;28.70;99.90;;;;;;5035102;28;20672;-80
2022/01/15 03:08:19;;;;;;;11.30;3.13;;;28.60;99.90;;;;;;5035864;28;20638;-79
2022/01/15 03:10:49;;;;;;;12.45;3.28;;;28.60;99.90;;;;;;5033741;28;20190;-80
2022/01/15 03:13:20;;;;;;;11.07;3.53;;;28.60;99.90;;;;;;5033772;28;20199;-80
2022/01/15 03:15:51;;;;;;;10.00;3.08;;;28.60;99.90;;;;;;5033581;28;20658;-80
2022/01/15 03:18:21;;;;;;;11.40;3.53;;;28.70;99.90;;;;;;5034241;28;20677;-80
2022/01/15 03:21:00;;;;;;;12.23;3.30;;;28.70;99.90;;;;;;5032237;28;20281;-81
2022/01/15 03:23:31;;;;;;;12.98;3.15;;;28.60;99.90;;;;;;5033607;28;20234;-82
2022/01/15 03:26:01;;;;;;;10.27;3.20;;;28.60;99.90;;;;;;5034501;28;20183;-81
2022/01/15 03:28:32;;;;;;;8.07;3.00;;;28.50;99.90;;;;;;5029056;28;20195;-81
2022/01/15 03:31:03;;;;;;;10.93;2.95;;;28.30;99.90;;;;;;5030828;28;20191;-81
2022/01/15 03:33:34;;;;;;;8.95;2.75;;;28.20;99.90;;;;;;5034377;28;20593;-81
2022/01/15 03:36:07;;;;;;;10.95;3.30;;;28.10;99.90;;;;;;5034623;28;20198;-80
2022/01/15 03:38:37;;;;;;;11.15;2.88;;;28.00;99.90;;;;;;5034645;28;20190;-80
2022/01/15 03:41:08;;;;;;;16.63;3.22;;;27.90;99.90;;;;;;5034317;28;20194;-81
2022/01/15 03:43:41;;;;;;;15.60;3.40;;;28.00;99.90;;;;;;5033920;28;20532;-80
2022/01/15 03:46:12;;;;;;;12.13;3.05;;;28.20;99.90;;;;;;5034207;28;20236;-81
2022/01/15 03:48:42;;;;;;;9.40;2.33;;;28.30;99.90;;;;;;5034180;28;20602;-82
2022/01/15 03:51:18;;;;;;;9.38;2.50;;;28.50;99.90;;;;;;5033581;28;20195;-81
2022/01/15 03:53:49;;;;;;;10.00;2.60;;;28.50;99.90;;;;;;5033983;28;20657;-82
2022/01/15 03:56:20;;;;;;;9.00;2.45;;;28.40;99.90;;;;;;5034062;28;20186;-79
2022/01/15 03:58:50;;;;;;;8.30;2.20;;;28.60;99.90;;;;;;5034419;28;20193;-83
2022/01/15 04:01:22;;;;;;;10.43;2.63;;;28.60;99.90;;;;;;5033771;28;20218;-79
2022/01/15 04:03:53;;;;;;;7.78;2.30;;;28.60;99.90;;;;;;5034042;28;20182;-81
2022/01/15 04:06:25;;;;;;;11.63;2.83;;;28.50;99.90;;;;;;5031683;28;20186;-81
2022/01/15 04:08:56;;;;;;;9.43;2.60;;;28.60;99.90;;;;;;5033014;28;20248;-81
2022/01/15 04:11:27;;;;;;;13.00;2.58;;;28.60;99.90;;;;;;5033094;28;20213;-81
2022/01/15 04:13:57;;;;;;;8.05;2.30;;;28.70;99.90;;;;;;5033372;28;20216;-80
2022/01/15 04:16:28;;;;;;;9.57;2.60;;;28.70;99.90;;;;;;5034088;28;20190;-80
2022/01/15 04:18:59;;;;;;;9.05;2.47;;;28.60;99.90;;;;;;5034188;28;20198;-81
2022/01/15 04:21:31;;;;;;;10.05;2.47;;;28.60;99.90;;;;;;5034017;28;20190;-81
2022/01/15 04:24:02;;;;;;;9.32;2.22;;;28.70;99.90;;;;;;5033418;28;20230;-83
2022/01/15 04:26:33;;;;;;;11.50;2.40;;;28.70;99.90;;;;;;5033696;28;20194;-79
2022/01/15 04:29:05;;;;;;;7.85;2.08;;;28.70;99.90;;;;;;5033589;28;20635;-79
2022/01/15 04:31:46;;;;;;;7.68;2.10;;;28.80;99.90;;;;;;5034083;28;20240;-79
2022/01/15 04:34:18;;;;;;;8.98;2.38;;;28.80;99.90;;;;;;5033245;28;20626;-79
2022/01/15 04:36:52;;;;;;;10.15;2.17;;;28.70;99.90;;;;;;5033646;28;20248;-81
2022/01/15 04:39:23;;;;;;;12.23;2.47;;;28.60;99.90;;;;;;5033418;28;20194;-80
2022/01/15 04:41:53;;;;;;;10.18;2.50;;;28.50;99.90;;;;;;5032652;28;20253;-79
2022/01/15 04:44:24;;;;;;;14.10;2.70;;;28.40;99.90;;;;;;5032787;28;20220;-81
2022/01/15 04:46:55;;;;;;;12.35;2.35;;;28.20;99.90;;;;;;5033947;28;20190;-82
2022/01/15 04:49:25;;;;;;;9.45;2.40;;;28.10;99.90;;;;;;5033231;28;20183;-79
2022/01/15 04:51:58;;;;;;;13.30;2.53;;;28.20;99.90;;;;;;5033093;28;20590;-81
2022/01/15 04:54:29;;;;;;;11.02;2.70;;;28.20;99.90;;;;;;5030544;28;20201;-80
2022/01/15 04:57:00;;;;;;;14.02;2.50;;;28.20;99.90;;;;;;5032777;28;20198;-78
2022/01/15 04:59:30;;;;;;;8.70;2.20;;;28.00;99.90;;;;;;5032495;28;20213;-77
2022/01/15 05:02:01;;;;;;;11.68;2.17;;;27.80;99.90;;;;;;5033034;28;20236;-80
2022/01/15 05:04:35;;;;;;;8.48;2.40;;;27.60;99.90;;;;;;5033559;28;20214;-81
2022/01/15 05:07:07;;;;;;;15.55;2.70;;;27.30;99.90;;;;;;5033345;28;20186;-79
2022/01/15 05:09:38;;;;;;;13.75;2.70;;;27.30;99.90;;;;;;5031644;28;20594;-80
2022/01/15 05:12:24;;;;;;;14.05;2.22;;;27.20;99.90;;;;;;5031519;28;20679;-80
2022/01/15 05:14:55;;;;;;;9.73;2.72;;;27.20;99.90;;;;;;5033605;28;20634;-81
2022/01/15 05:17:28;;;;;;;13.20;2.90;;;27.10;99.90;;;;;;5033248;28;20194;-79
2022/01/15 05:20:01;;;;;;;9.23;2.60;;;27.10;99.90;;;;;;5032892;28;20218;-82
2022/01/15 05:22:34;;;;;;;13.77;2.80;;;27.00;99.90;;;;;;5032672;28;20656;-82
2022/01/15 05:25:07;;;;;;;14.00;3.08;;;27.00;99.90;;;;;;5032924;28;20648;-83
2022/01/15 05:27:39;;;;;;;10.77;2.88;;;26.80;99.90;;;;;;5033323;28;20639;-80
2022/01/15 05:30:15;;;;;;;18.40;3.05;;;26.80;99.90;;;;;;5028084;28;20213;-82
2022/01/15 05:32:46;;;;;;;14.75;3.08;;;26.60;99.90;;;;;;5032017;28;20198;-81
2022/01/15 05:35:17;;;;;;;11.98;2.78;;;26.60;99.90;;;;;;5032867;28;20202;-81
2022/01/15 05:37:52;;;;;;;10.10;2.83;;;26.60;99.90;;;;;;5032461;28;20195;-81
2022/01/15 05:40:23;;;;;;;13.98;2.58;;;26.50;99.90;;;;;;5031148;28;20205;-81
2022/01/15 05:42:54;;;;;;;11.18;2.60;;;26.50;99.90;;;;;;5032558;28;20662;-83
2022/01/15 05:45:26;;;;;;;12.63;2.50;;;26.50;99.90;;;;;;5036385;28;20221;-81
2022/01/15 05:47:56;;;;;;;9.80;2.80;;;26.50;99.90;;;;;;5036023;28;20621;-80
2022/01/15 05:50:27;;;;;;;9.98;2.80;;;26.50;99.90;;;;;;5032049;28;20190;-81
2022/01/15 05:53:00;;;;;;;9.75;2.25;;;26.40;99.90;;;;;;5031797;28;20190;-82
2022/01/15 05:55:36;;;;;;;14.55;2.55;;;26.40;99.90;;;;;;5032191;28;20640;-82
2022/01/15 05:58:07;;;;;;;14.18;3.20;;;26.40;99.90;;;;;;5031321;28;20229;-81
2022/01/15 06:00:39;;;;;;;14.00;2.83;;;26.40;99.90;;;;;;5030974;28;20301;-81
2022/01/15 06:03:09;;;;;;;9.82;2.28;;;26.50;99.90;;;;;;5030825;28;20217;-81
2022/01/15 06:05:40;;;;;;;12.52;2.60;;;26.50;99.90;;;;;;5031216;28;20210;-80
2022/01/15 06:08:12;;;;;;;9.48;2.20;;;26.50;99.90;;;;;;5031581;28;20187;-80
2022/01/15 06:10:43;;;;;;;13.63;2.53;;;26.50;99.90;;;;;;5033910;28;20244;-80
2022/01/15 06:13:14;;;;;;;10.43;2.63;;;26.60;99.90;;;;;;5035030;28;20191;-79
2022/01/15 06:15:44;;;;;;;9.07;2.10;;;26.70;99.90;;;;;;5035645;28;20241;-80
2022/01/15 06:18:15;;;;;;;15.55;2.55;;;26.80;99.90;;;;;;5030583;28;20194;-81
2022/01/15 06:20:46;;;;;;;14.15;2.83;;;26.80;99.90;;;;;;5034633;28;20631;-80
2022/01/15 06:23:18;;;;;;;12.40;2.55;;;26.80;99.90;;;;;;5035480;28;20226;-80
2022/01/15 06:25:49;;;;;;;10.25;2.30;;;26.80;99.90;;;;;;5038304;28;20226;-80
2022/01/15 06:28:19;;;;;;;10.27;2.17;;;26.80;99.90;;;;;;5044798;28;20195;-79
2022/01/15 06:30:50;;;;;;;13.48;2.90;;;26.80;99.90;;;;;;5035046;28;20194;-81
2022/01/15 06:33:21;;;;;;;10.90;2.15;;;26.80;99.90;;;;;;5045257;28;20259;-80
2022/01/15 06:35:52;;;;;;;12.13;2.15;;;26.70;99.90;;;;;;5039212;28;20190;-80
2022/01/15 06:38:24;;;;;;;8.07;2.20;;;26.70;99.90;;;;;;5036223;28;20190;-79
2022/01/15 06:40:55;;;;;;;9.00;2.38;;;26.60;99.90;;;;;;5035860;28;20669;-80
2022/01/15 06:43:26;;;;;;;8.57;2.40;;;26.60;99.90;;;;;;5034599;28;20240;-80
2022/01/15 06:45:56;;;;;;;9.18;2.10;;;26.60;99.90;;;;;;5036973;28;20690;-79
2022/01/15 06:48:28;;;;;;;9.35;2.67;;;26.70;99.90;;;;;;5042400;28;20691;-81
2022/01/15 06:50:59;;;;;;;9.77;2.17;;;26.80;99.90;;;;;;5053255;28;20205;-80
2022/01/15 06:53:32;;;;;;;9.18;1.85;;;26.90;99.90;;;;;;5033789;28;20191;-80
2022/01/15 06:56:02;;;;;;;8.90;2.30;;;27.10;99.90;;;;;;5044737;28;20679;-81
2022/01/15 06:58:33;;;;;;;5.55;2.08;;;27.30;99.90;;;;;;5035364;28;20194;-81
2022/01/15 07:01:04;;;;;;;7.95;2.10;;;27.50;99.90;;;;;;5032863;28;20183;-79
2022/01/15 07:03:35;;;;;;;10.50;2.35;;;27.50;99.90;;;;;;5034055;28;20187;-80
2022/01/15 07:06:05;;;;;;;9.27;2.63;;;27.60;99.90;;;;;;5036536;28;20241;-81
2022/01/15 07:08:38;;;;;;;8.25;2.50;;;27.70;99.90;;;;;;5035310;28;20186;-80
2022/01/15 07:11:09;;;;;;;8.23;2.30;;;27.70;99.90;;;;;;5031414;28;20197;-79
2022/01/15 07:13:39;;;;;;;8.85;2.45;;;27.80;99.90;;;;;;5038850;28;20199;-82
2022/01/15 07:16:10;;;;;;;9.20;2.00;;;27.90;99.90;;;;;;5035185;28;20201;-80
2022/01/15 07:18:41;;;;;;;11.43;2.17;;;27.90;99.90;;;;;;5035105;28;20186;-79
2022/01/15 07:21:12;;;;;;;7.18;1.90;;;27.90;99.90;;;;;;5040758;28;20191;-80
2022/01/15 07:23:45;;;;;;;8.98;2.10;;;27.90;99.90;;;;;;5034984;28;20225;-79
2022/01/15 07:26:15;;;;;;;4.68;1.70;;;27.90;99.90;;;;;;5035355;28;20674;-79
2022/01/15 07:28:46;;;;;;;13.63;2.08;;;27.90;99.90;;;;;;5034847;28;20588;-80
2022/01/15 07:31:17;;;;;;;10.60;1.92;;;27.90;99.90;;;;;;5018545;28;20198;-79
2022/01/15 07:33:47;;;;;;;6.75;1.95;;;28.00;99.90;;;;;;5046049;28;20208;-80
2022/01/15 07:36:19;;;;;;;6.82;1.90;;;28.00;99.90;;;;;;5036834;28;20203;-80
2022/01/15 07:38:51;;;;;;;10.27;2.03;;;28.00;99.90;;;;;;5034153;28;20209;-79
2022/01/15 07:41:24;;;;;;;7.28;1.55;;;27.80;99.90;;;;;;5052394;28;20247;-80
2022/01/15 07:43:54;;;;;;;7.45;1.73;;;27.90;99.90;;;;;;5054277;28;20189;-79
2022/01/15 07:46:25;;;;;;;6.43;1.58;;;27.90;99.90;;;;;;5015863;28;20226;-79
2022/01/15 07:48:56;;;;;;;6.70;1.70;;;27.90;99.90;;;;;;5034507;28;20653;-80
2022/01/15 07:51:26;;;;;;;6.95;1.90;;;27.80;99.90;;;;;;5034009;28;20198;-80
2022/01/15 07:53:59;;;;;;;8.80;2.00;;;27.80;99.90;;;;;;5034839;28;20190;-80
2022/01/15 07:56:29;;;;;;;7.28;2.10;;;27.70;99.90;;;;;;5034423;28;20187;-80
2022/01/15 07:59:00;;;;;;;7.28;2.00;;;27.80;99.90;;;;;;5034897;28;20698;-80
2022/01/15 08:01:31;;;;;;;5.30;1.70;;;27.70;99.90;;;;;;5038025;28;20186;-79
2022/01/15 08:04:01;;;;;;;5.18;1.80;;;27.80;99.90;;;;;;5047760;28;20201;-80
2022/01/15 08:06:32;;;;;;;7.30;1.88;;;27.70;99.90;;;;;;5034268;28;20214;-81
2022/01/15 08:09:04;;;;;;;8.38;1.90;;;27.70;99.90;;;;;;5039333;28;20182;-81
2022/01/15 08:11:35;;;;;;;8.70;2.15;;;27.70;99.90;;;;;;5037259;28;20201;-80
2022/01/15 08:14:06;;;;;;;6.80;2.00;;;27.80;99.90;;;;;;5051344;28;20661;-80
2022/01/15 08:16:36;;;;;;;8.18;1.88;;;27.80;99.90;;;;;;5039331;28;20205;-81
2022/01/15 08:19:07;;;;;;;6.72;2.00;;;27.70;99.90;;;;;;5034142;28;20190;-81
2022/01/15 08:21:38;;;;;;;5.30;1.73;;;27.70;99.90;;;;;;5033974;28;20187;-81
2022/01/15 08:24:12;;;;;;;7.20;2.17;;;27.60;99.90;;;;;;5033997;28;20237;-81
2022/01/15 08:26:42;;;;;;;6.93;2.10;;;27.50;99.90;;;;;;5033926;28;20214;-79
2022/01/15 08:29:13;;;;;;;5.88;1.80;;;27.30;99.90;;;;;;5033905;28;20605;-80
2022/01/15 08:31:46;;;;;;;7.90;2.38;;;27.20;99.90;;;;;;5033520;28;20248;-79
2022/01/15 08:34:17;;;;;;;9.60;2.00;;;27.20;99.90;;;;;;5033475;28;20237;-79
2022/01/15 08:36:47;;;;;;;7.53;2.20;;;27.10;99.90;;;;;;5032639;28;20191;-79
2022/01/15 08:39:20;;;;;;;5.60;2.00;;;27.00;99.90;;;;;;5033712;28;20237;-79
2022/01/15 08:41:51;;;;;;;8.00;1.98;;;27.00;99.90;;;;;;5033742;28;20244;-79
2022/01/15 08:44:25;;;;;;;7.00;1.85;;;26.90;99.90;;;;;;5030351;28;20202;-79
2022/01/15 08:46:56;;;;;;;4.78;2.00;;;26.80;99.90;;;;;;5033392;28;20218;-79
2022/01/15 08:49:27;;;;;;;4.68;2.08;;;26.80;99.90;;;;;;5033536;28;20194;-80
2022/01/15 08:51:57;;;;;;;8.73;2.53;;;26.70;99.90;;;;;;5029519;28;20186;-80
2022/01/15 08:54:30;;;;;;;7.03;1.83;;;26.60;99.90;;;;;;5033375;28;20253;-80
2022/01/15 08:57:01;;;;;;;5.25;1.88;;;26.60;99.90;;;;;;5033597;28;20194;-80
2022/01/15 08:59:31;;;;;;;6.07;1.80;;;26.50;99.90;;;;;;5033153;28;20214;-80
2022/01/15 09:02:02;;;;;;;5.00;1.90;;;26.40;99.90;;;;;;5033145;28;20194;-80
2022/01/15 09:04:33;;;;;;;7.00;1.85;;;26.40;99.90;;;;;;5033502;28;20194;-79
2022/01/15 09:07:04;;;;;;;4.88;1.70;;;26.30;99.90;;;;;;5033270;28;20225;-79
2022/01/15 09:09:36;;;;;;;4.28;1.95;;;26.20;99.90;;;;;;5031859;28;20186;-79
2022/01/15 09:12:07;;;;;;;6.88;2.20;;;26.10;99.90;;;;;;5033571;28;20195;-80
2022/01/15 09:14:38;;;;;;;8.02;2.28;;;26.10;99.90;;;;;;5032814;28;20202;-80
2022/01/15 09:17:09;;;;;;;7.45;2.15;;;26.10;99.90;;;;;;5033046;28;20542;-80
2022/01/15 09:19:39;;;;;;;5.97;2.10;;;26.10;99.90;;;;;;5033269;28;20213;-79
2022/01/15 09:22:11;;;;;;;5.53;1.90;;;26.00;99.90;;;;;;5032673;28;20194;-80
2022/01/15 09:24:44;;;;;;;5.38;1.83;;;26.00;99.90;;;;;;5032874;28;20309;-80
2022/01/15 09:30:15;;;;;;;5.40;1.80;;;25.90;99.90;;;;;;5033011;28;20197;-80
2022/01/15 09:32:47;;;;;;;6.03;1.80;;;25.90;99.90;;;;;;5028250;28;20194;-80
2022/01/15 09:35:19;;;;;;;4.72;1.80;;;25.80;99.90;;;;;;5032646;28;20186;-80
2022/01/15 09:37:51;;;;;;;3.88;1.70;;;25.80;99.90;;;;;;5032661;28;20187;-79
2022/01/15 09:40:25;;;;;;;7.95;2.10;;;25.70;99.90;;;;;;5032354;28;20194;-80
2022/01/15 09:42:56;;;;;;;2.20;1.55;;;25.70;99.90;;;;;;5032503;28;20189;-79
2022/01/15 09:45:28;;;;;;;6.00;1.63;;;25.70;99.90;;;;;;5034130;28;20574;-79
2022/01/15 09:48:00;;;;;;;6.93;1.63;;;25.60;99.90;;;;;;5036603;28;20244;-79
2022/01/15 09:50:33;;;;;;;8.35;1.70;;;25.60;99.90;;;;;;5036362;28;20186;-79
2022/01/15 09:53:03;;;;;;;6.97;1.65;;;25.60;99.90;;;;;;5036930;28;20765;-79
2022/01/15 09:55:39;;;;;;;3.80;1.40;;;25.60;99.90;;;;;;5036632;28;20201;-79
2022/01/15 09:58:09;;;;;;;8.38;1.73;;;25.60;99.90;;;;;;5036342;28;20226;-79
2022/01/15 10:00:40;;;;;;;3.00;1.40;;;25.60;99.90;;;;;;5035693;28;20538;-80
2022/01/15 10:03:11;;;;;;;5.93;2.10;;;25.60;99.90;;;;;;5036196;28;20194;-79
2022/01/15 10:05:42;;;;;;;7.47;1.60;;;25.60;99.90;;;;;;5035943;28;20197;-79
2022/01/15 10:08:13;;;;;;;3.30;1.60;;;25.60;99.90;;;;;;5036396;28;20198;-80
2022/01/15 10:10:50;;;;;;;3.38;1.40;;;25.60;99.90;;;;;;5036496;28;20196;-80
2022/01/15 10:13:23;;;;;;;6.03;1.63;;;25.60;99.90;;;;;;5036376;28;20194;-80
2022/01/15 10:16:08;;;;;;;5.15;1.58;;;25.50;99.90;;;;;;5035875;28;20194;-80
2022/01/15 10:18:44;;;;;;;4.88;1.60;;;25.50;99.90;;;;;;5035915;28;20195;-80
2022/01/15 10:21:18;;;;;;;6.32;1.55;;;25.50;99.90;;;;;;5036258;28;20189;-80
2022/01/15 10:23:50;;;;;;;5.15;1.65;;;25.50;99.90;;;;;;5036035;28;20229;-80
2022/01/15 10:26:24;;;;;;;3.42;1.50;;;25.40;99.90;;;;;;5036123;28;20280;-80
2022/01/15 10:28:57;;;;;;;5.50;1.70;;;25.40;99.90;;;;;;5036251;28;20638;-80
2022/01/15 10:31:29;;;;;;;5.70;1.60;;;25.40;99.90;;;;;;5035887;28;20685;-80
2022/01/15 10:34:01;;;;;;;4.78;1.73;;;25.30;99.90;;;;;;5036209;28;20190;-79
2022/01/15 10:36:36;;;;;;;2.63;1.70;;;25.30;99.90;;;;;;5035353;28;20642;-80
2022/01/15 10:39:26;;;;;;;7.18;1.77;;;25.20;99.90;;;;;;5035784;28;20190;-79
2022/01/15 10:41:59;;;;;;;6.28;1.98;;;25.20;99.90;;;;;;5030897;28;20194;-80
2022/01/15 10:44:35;;;;;;;5.57;1.80;;;25.10;99.90;;;;;;5035811;28;20249;-80
2022/01/15 10:47:07;;;;;;;3.85;1.92;;;25.00;99.90;;;;;;5035789;28;20784;-80
2022/01/15 10:49:40;;;;;;;4.25;1.65;;;25.00;99.90;;;;;;5034735;28;20186;-80
2022/01/15 10:52:13;;;;;;;4.28;1.73;;;25.00;99.90;;;;;;5035561;28;20646;-80
2022/01/15 10:54:57;;;;;;;6.95;2.03;;;25.00;99.90;;;;;;5032917;28;20268;-80
2022/01/15 10:57:31;;;;;;;6.78;1.88;;;25.00;99.90;;;;;;5034790;28;20273;-80
2022/01/15 11:00:13;;;;;;;6.35;1.80;;;25.00;99.90;;;;;;5035603;28;20190;-80
2022/01/15 11:02:46;;;;;;;4.85;2.28;;;24.90;99.90;;;;;;5035416;28;20220;-80
2022/01/15 11:05:37;;;;;;;7.45;2.60;;;24.90;99.90;;;;;;5035670;28;20194;-80
2022/01/15 11:08:10;;;;;;;7.38;2.50;;;24.90;99.90;;;;;;5035437;28;20214;-80
2022/01/15 11:10:48;;;;;;;5.43;2.20;;;24.90;99.90;;;;;;5035208;28;20539;-80
2022/01/15 11:13:23;;;;;;;6.80;2.42;;;24.90;99.90;;;;;;5035461;28;20186;-80
2022/01/15 11:15:56;;;;;;;7.70;2.40;;;25.00;99.90;;;;;;5034976;28;20653;-79
2022/01/15 11:18:29;;;;;;;6.60;2.65;;;25.00;99.90;;;;;;5035257;28;20186;-79
2022/01/15 11:21:02;;;;;;;8.00;3.00;;;25.10;99.90;;;;;;5034932;28;20222;-79
2022/01/15 11:23:33;;;;;;;8.73;3.38;;;25.20;99.90;;;;;;5015207;28;20238;-79
2022/01/15 11:26:09;;;;;;;5.70;2.75;;;25.20;99.90;;;;;;5016607;28;20202;-79
2022/01/15 11:28:43;;;;;;;9.18;3.03;;;25.20;99.90;;;;;;5034951;28;20718;-79
2022/01/15 11:31:16;;;;;;;9.35;3.33;;;25.20;99.90;;;;;;5015247;28;20195;-79
2022/01/15 11:33:52;;;;;;;7.22;3.40;;;25.20;99.90;;;;;;5014396;28;20667;-79
2022/01/15 11:36:33;;;;;;;7.55;3.58;;;25.20;99.90;;;;;;5033427;28;20205;-79
2022/01/15 11:39:05;;;;;;;8.38;3.97;;;25.10;99.90;;;;;;5034534;28;20197;-79
2022/01/15 11:41:40;;;;;;;8.35;4.00;;;25.10;99.90;;;;;;5034973;28;20190;-79
2022/01/15 11:44:17;;;;;;;10.90;4.10;;;25.10;99.90;;;;;;5034780;28;20189;-79
2022/01/15 11:46:50;;;;;;;7.53;4.00;;;25.10;99.90;;;;;;5034255;28;20209;-80
2022/01/15 11:49:41;;;;;;;8.30;4.03;;;25.10;99.90;;;;;;5034428;28;20596;-80
2022/01/15 11:52:44;;;;;;;8.07;4.40;;;25.00;99.90;;;;;;5034185;28;20650;-80
2022/01/15 11:55:29;;;;;;;11.75;5.07;;;25.00;99.90;;;;;;5034530;28;20280;-80
2022/01/15 11:58:03;;;;;;;9.10;4.70;;;25.00;99.90;;;;;;5034462;28;20284;-80
2022/01/15 12:00:45;;;;;;;9.98;4.80;;;24.90;99.90;;;;;;5033755;28;20197;-79
2022/01/15 12:03:16;;;;;;;10.02;4.70;;;25.00;99.90;;;;;;5033950;28;20222;-80
2022/01/15 12:06:02;;;;;;;10.45;4.13;;;24.90;99.90;;;;;;5034035;28;20186;-80
2022/01/15 12:08:35;;;;;;;8.98;4.43;;;25.00;99.90;;;;;;5032894;28;20221;-80
2022/01/15 12:11:07;;;;;;;7.22;4.07;;;24.90;99.90;;;;;;5034313;28;20198;-80
2022/01/15 12:13:51;;;;;;;7.50;4.30;;;24.80;99.90;;;;;;5034322;28;20638;-80
2022/01/15 12:16:38;;;;;;;9.15;3.95;;;24.80;99.90;;;;;;5033872;28;20233;-81
2022/01/15 12:19:09;;;;;;;7.82;3.75;;;24.60;99.90;;;;;;5032834;28;20201;-80
2022/01/15 12:21:49;;;;;;;8.73;3.65;;;24.50;99.90;;;;;;5033678;28;20697;-80
2022/01/15 12:24:52;;;;;;;6.38;3.95;;;24.50;99.90;;;;;;5033531;28;20233;-80
2022/01/15 12:27:28;;;;;;;7.03;3.97;;;24.40;99.90;;;;;;5033828;28;20218;-80
2022/01/15 12:30:16;;;;;;;13.65;4.45;;;24.30;99.90;;;;;;5033772;28;20193;-80
2022/01/15 12:32:53;;;;;;;8.68;4.43;;;24.20;99.90;;;;;;5032779;28;20639;-80
2022/01/15 12:35:25;;;;;;;6.25;3.95;;;24.20;99.90;;;;;;5033620;28;20638;-80
2022/01/15 12:38:01;;;;;;;8.38;4.45;;;24.20;99.90;;;;;;5031794;28;20197;-80
2022/01/15 12:40:37;;;;;;;7.90;4.10;;;24.20;99.90;;;;;;5032091;28;20221;-80
2022/01/15 12:43:09;;;;;;;8.35;4.28;;;24.20;99.90;;;;;;5033374;28;20612;-80
2022/01/15 12:45:41;;;;;;;13.20;3.90;;;24.10;99.90;;;;;;5033546;28;20190;-80
2022/01/15 12:48:18;;;;;;;8.82;4.18;;;24.10;99.90;;;;;;5032613;28;20214;-80
2022/01/15 12:50:52;;;;;;;7.32;4.38;;;24.00;99.90;;;;;;5033677;28;20280;-80
2022/01/15 12:53:24;;;;;;;8.75;4.40;;;24.00;99.90;;;;;;5033206;28;20563;-80
2022/01/15 12:55:55;;;;;;;6.95;3.70;;;24.00;99.90;;;;;;5033265;28;20193;-81
2022/01/15 12:58:27;;;;;;;5.95;3.40;;;24.00;99.90;;;;;;5033158;28;20222;-80
2022/01/15 13:00:58;;;;;;;6.72;3.72;;;24.00;99.90;;;;;;5032371;28;20237;-80
2022/01/15 13:03:30;;;;;;;6.97;3.17;;;24.00;99.90;;;;;;5033341;28;20190;-80
2022/01/15 13:06:01;;;;;;;8.43;3.38;;;23.90;99.90;;;;;;5033388;28;20199;-81
2022/01/15 13:08:35;;;;;;;5.43;2.75;;;23.90;99.90;;;;;;5032226;28;20217;-81
2022/01/15 13:11:08;;;;;;;6.10;2.90;;;23.90;99.90;;;;;;5032841;28;20277;-80
2022/01/15 13:13:40;;;;;;;4.47;2.92;;;23.80;99.90;;;;;;5032795;28;20642;-81
2022/01/15 13:16:13;;;;;;;5.47;3.08;;;23.80;99.90;;;;;;5024931;28;20201;-80
2022/01/15 13:18:47;;;;;;;7.93;3.05;;;23.80;99.90;;;;;;5031787;28;20222;-79
2022/01/15 13:21:19;;;;;;;6.90;2.72;;;23.80;99.90;;;;;;5032677;28;20194;-80
2022/01/15 13:23:53;;;;;;;4.28;2.38;;;23.80;99.90;;;;;;5032113;28;20230;-80
2022/01/15 13:26:33;;;;;;;7.47;2.80;;;23.70;99.90;;;;;;5033131;28;20194;-80
2022/01/15 13:29:05;;;;;;;4.60;2.13;;;23.70;99.90;;;;;;5024906;28;20268;-80
2022/01/15 13:31:37;;;;;;;5.03;2.55;;;23.70;99.90;;;;;;5032658;28;20198;-80